Aeroporto :
LOGIN :

Iscrizione | Disclaimer

   EN    FR    IT 

 










Sommario :    VFR   VFR Marginale   IFR   IFR Intensivo   IFR Molto Intensivo
Visibilità : 
Base nubi : 
>= 8 km
>= 3000ft
5 / 8 km
1000 / 3000 ft
1500m / 5 km
500 / 1000 ft
800 / 1500m
200 / 500 ft
< 800m
< 200 ft
Simboli :   Temporali  Nebbia  Neve Forte  Precipitazioni Forti  Vento > 20 kt
SIGMETs :   Varie  Temporali  Ghiacco  Turbolenza  Onda orograficha  Ceneri Vulcaniche






- Altitudine del aeroporto : 489 ft
- Codice IATA : GDN


EPGD - Gdansk

ULTIMO METAR :
  • 211130Z 28025KT 9999 OVC008 04/02 Q1029

METARs OBSOLETI :
  • 211100Z 28027KT 9999 OVC009 04/02 Q1030
  • 211030Z 28027KT 9999 OVC009 04/02 Q1030
  • 211000Z 27022KT 9999 OVC007 03/02 Q1030
  • 210930Z 27024KT 9999 OVC008 03/01 Q1030
  • 210900Z 27023G34KT 9999 OVC008 03/02 Q1030

TAF TAF EPGD
Valido dal 21 a 12 ore il 22 a 12 ore UTC


211130Z 2112/2212 27020KT 9999 BKN012
TEMPO 2112/2118 27028G38KT BKN007
PROB40 2118/2201 27018G28KT 4000 -RA BKN004
TEMPO 2202/2206 27030G40KT
BECMG 2207/2210 33014KT SCT030
TEMPO 2207/2212 33018G32KT



MetMap, La meteo Aeronautica in un colpo d'occhio ! - Copyright ORBIFLY Dicembre 2007 - Disclaimer

ORBIFLY MET'MAP TEAM :

Programmazione e sviluppo : Alexandra Zaïnal
Concezione : Baudouin d'Aumeries
Aiuto per la programmazione : Marc-Olivier Méhu
Supporto tecnico e logistico : Manuel Goepfert
Aiuto per la traduzione : Arnaldo La Scala

Contatto : metmap@orbifly.com




FONTI E CREDITI :

   NOAA